Terminal Aerodrome Forecast
Issued by NWS Rapid City, SD

Home | Current Version | Previous Version | Text Only | Print | Product List | Glossary Off
Versions: 1 2 3 4 5 6 7 8 9 10 11 12 13 14 15 16 17 18

000
FTUS43 KUNR 211100
TAFRAP
TAF
KRAP 211120Z 2112/2212 35011KT P6SM SCT070 BKN100
     FM211600 03006KT P6SM SCT110
     FM211800 07008KT P6SM BKN250
     FM212300 14009KT P6SM SCT080 BKN150
     FM220500 06009KT P6SM BKN100
     FM220700 35015KT P6SM SCT050 BKN100=

USA.gov is the U.S. government's official web portal to all federal, state and local government web resources and services.